sensor_id;sensor_type;location;lat;lon;timestamp;pressure;altitude;pressure_sealevel;temperature;humidity
54924;BME280;40825;52.270;20.984;2023-02-15T00:01:39;102338.70;;;3.31;94.84
54924;BME280;40825;52.270;20.984;2023-02-15T00:04:06;102341.92;;;3.33;94.76
54924;BME280;40825;52.270;20.984;2023-02-15T00:06:32;102341.00;;;3.34;94.81
54924;BME280;40825;52.270;20.984;2023-02-15T00:08:58;102339.92;;;3.34;94.83
54924;BME280;40825;52.270;20.984;2023-02-15T00:11:24;102340.02;;;3.35;94.85
54924;BME280;40825;52.270;20.984;2023-02-15T00:14:14;102338.51;;;3.34;94.73
54924;BME280;40825;52.270;20.984;2023-02-15T00:16:42;102334.91;;;3.33;94.89
54924;BME280;40825;52.270;20.984;2023-02-15T00:19:09;102337.28;;;3.34;94.85
54924;BME280;40825;52.270;20.984;2023-02-15T00:21:35;102335.19;;;3.34;94.67
54924;BME280;40825;52.270;20.984;2023-02-15T00:24:03;102331.33;;;3.30;94.71
54924;BME280;40825;52.270;20.984;2023-02-15T00:26:29;102327.45;;;3.27;94.79
54924;BME280;40825;52.270;20.984;2023-02-15T00:28:55;102325.82;;;3.25;94.79
54924;BME280;40825;52.270;20.984;2023-02-15T00:31:21;102324.48;;;3.27;94.85
54924;BME280;40825;52.270;20.984;2023-02-15T00:33:47;102322.27;;;3.28;94.93
54924;BME280;40825;52.270;20.984;2023-02-15T00:36:13;102322.42;;;3.29;94.93
54924;BME280;40825;52.270;20.984;2023-02-15T00:38:38;102322.58;;;3.29;94.87
54924;BME280;40825;52.270;20.984;2023-02-15T00:41:06;102317.61;;;3.33;94.97
54924;BME280;40825;52.270;20.984;2023-02-15T00:43:33;102313.15;;;3.37;94.87
54924;BME280;40825;52.270;20.984;2023-02-15T00:46:00;102311.95;;;3.39;94.98
54924;BME280;40825;52.270;20.984;2023-02-15T00:48:26;102309.55;;;3.44;94.85
54924;BME280;40825;52.270;20.984;2023-02-15T00:50:54;102309.69;;;3.47;94.85
54924;BME280;40825;52.270;20.984;2023-02-15T00:53:20;102304.23;;;3.53;94.98
54924;BME280;40825;52.270;20.984;2023-02-15T00:55:46;102304.27;;;3.61;94.85
54924;BME280;40825;52.270;20.984;2023-02-15T00:58:12;102304.76;;;3.62;94.60
54924;BME280;40825;52.270;20.984;2023-02-15T01:00:39;102302.85;;;3.61;94.60
54924;BME280;40825;52.270;20.984;2023-02-15T01:03:06;102299.71;;;3.61;94.59
54924;BME280;40825;52.270;20.984;2023-02-15T01:05:32;102300.13;;;3.60;94.45
54924;BME280;40825;52.270;20.984;2023-02-15T01:07:59;102299.59;;;3.60;94.67
54924;BME280;40825;52.270;20.984;2023-02-15T01:10:26;102297.85;;;3.59;94.53
54924;BME280;40825;52.270;20.984;2023-02-15T01:12:53;102293.02;;;3.61;94.49
54924;BME280;40825;52.270;20.984;2023-02-15T01:15:18;102287.75;;;3.61;94.51
54924;BME280;40825;52.270;20.984;2023-02-15T01:17:44;102286.73;;;3.60;94.35
54924;BME280;40825;52.270;20.984;2023-02-15T01:20:15;102285.83;;;3.57;94.13
54924;BME280;40825;52.270;20.984;2023-02-15T01:22:40;102283.18;;;3.55;94.23
54924;BME280;40825;52.270;20.984;2023-02-15T01:25:06;102281.94;;;3.55;94.35
54924;BME280;40825;52.270;20.984;2023-02-15T01:27:32;102287.00;;;3.55;94.23
54924;BME280;40825;52.270;20.984;2023-02-15T01:29:57;102284.59;;;3.57;94.42
54924;BME280;40825;52.270;20.984;2023-02-15T01:32:23;102282.97;;;3.58;94.22
54924;BME280;40825;52.270;20.984;2023-02-15T01:34:48;102283.27;;;3.53;94.10
54924;BME280;40825;52.270;20.984;2023-02-15T01:37:14;102278.69;;;3.48;94.14
54924;BME280;40825;52.270;20.984;2023-02-15T01:39:39;102278.94;;;3.49;94.46
54924;BME280;40825;52.270;20.984;2023-02-15T01:42:05;102276.14;;;3.54;94.38
54924;BME280;40825;52.270;20.984;2023-02-15T01:47:38;102276.73;;;3.53;94.15
54924;BME280;40825;52.270;20.984;2023-02-15T01:50:09;102276.92;;;3.53;94.16
54924;BME280;40825;52.270;20.984;2023-02-15T01:52:42;102275.35;;;3.53;94.16
54924;BME280;40825;52.270;20.984;2023-02-15T01:55:10;102279.00;;;3.53;94.18
54924;BME280;40825;52.270;20.984;2023-02-15T01:57:38;102277.74;;;3.57;94.17
54924;BME280;40825;52.270;20.984;2023-02-15T02:00:06;102273.22;;;3.56;93.99
54924;BME280;40825;52.270;20.984;2023-02-15T02:02:32;102273.01;;;3.54;94.02
54924;BME280;40825;52.270;20.984;2023-02-15T02:05:00;102271.92;;;3.52;94.04
54924;BME280;40825;52.270;20.984;2023-02-15T02:07:41;102265.96;;;3.51;94.19
54924;BME280;40825;52.270;20.984;2023-02-15T02:10:10;102267.06;;;3.53;94.10
54924;BME280;40825;52.270;20.984;2023-02-15T02:12:36;102263.13;;;3.54;94.04
54924;BME280;40825;52.270;20.984;2023-02-15T02:15:04;102264.27;;;3.53;94.12
54924;BME280;40825;52.270;20.984;2023-02-15T02:18:06;102265.70;;;3.52;94.06
54924;BME280;40825;52.270;20.984;2023-02-15T02:23:44;102257.83;;;3.52;94.20
54924;BME280;40825;52.270;20.984;2023-02-15T02:34:29;102243.89;;;3.61;93.89
54924;BME280;40825;52.270;20.984;2023-02-15T02:39:41;102240.77;;;3.60;93.94
54924;BME280;40825;52.270;20.984;2023-02-15T02:42:38;102240.03;;;3.63;94.01
54924;BME280;40825;52.270;20.984;2023-02-15T02:45:08;102235.89;;;3.67;94.03
54924;BME280;40825;52.270;20.984;2023-02-15T02:47:49;102238.06;;;3.69;93.80
54924;BME280;40825;52.270;20.984;2023-02-15T02:50:21;102236.52;;;3.69;93.82
54924;BME280;40825;52.270;20.984;2023-02-15T02:52:49;102233.36;;;3.71;93.94
54924;BME280;40825;52.270;20.984;2023-02-15T02:57:57;102236.69;;;3.71;93.63
54924;BME280;40825;52.270;20.984;2023-02-15T03:00:29;102231.11;;;3.70;93.67
54924;BME280;40825;52.270;20.984;2023-02-15T03:03:05;102231.90;;;3.66;93.46
54924;BME280;40825;52.270;20.984;2023-02-15T03:05:34;102235.23;;;3.61;93.54
54924;BME280;40825;52.270;20.984;2023-02-15T03:08:03;102234.64;;;3.54;93.40
54924;BME280;40825;52.270;20.984;2023-02-15T03:10:32;102238.28;;;3.46;93.48
54924;BME280;40825;52.270;20.984;2023-02-15T03:12:59;102234.25;;;3.46;93.63
54924;BME280;40825;52.270;20.984;2023-02-15T03:15:33;102236.09;;;3.47;93.55
54924;BME280;40825;52.270;20.984;2023-02-15T03:18:37;102233.23;;;3.45;93.55
54924;BME280;40825;52.270;20.984;2023-02-15T03:21:05;102231.23;;;3.46;93.66
54924;BME280;40825;52.270;20.984;2023-02-15T03:23:32;102226.75;;;3.45;93.49
54924;BME280;40825;52.270;20.984;2023-02-15T03:26:01;102227.73;;;3.43;93.48
54924;BME280;40825;52.270;20.984;2023-02-15T03:28:36;102227.05;;;3.46;93.60
54924;BME280;40825;52.270;20.984;2023-02-15T03:31:06;102227.39;;;3.46;93.38
54924;BME280;40825;52.270;20.984;2023-02-15T03:33:35;102236.13;;;3.44;93.57
54924;BME280;40825;52.270;20.984;2023-02-15T03:36:24;102234.06;;;3.46;93.70
54924;BME280;40825;52.270;20.984;2023-02-15T03:39:01;102233.36;;;3.49;93.52
54924;BME280;40825;52.270;20.984;2023-02-15T03:41:34;102238.59;;;3.47;93.46
54924;BME280;40825;52.270;20.984;2023-02-15T03:44:11;102237.67;;;3.48;93.67
54924;BME280;40825;52.270;20.984;2023-02-15T03:46:46;102231.90;;;3.50;93.67
54924;BME280;40825;52.270;20.984;2023-02-15T03:49:42;102232.35;;;3.53;93.73
54924;BME280;40825;52.270;20.984;2023-02-15T03:52:10;102227.06;;;3.57;93.75
54924;BME280;40825;52.270;20.984;2023-02-15T03:54:37;102226.39;;;3.59;93.62
54924;BME280;40825;52.270;20.984;2023-02-15T03:57:26;102221.72;;;3.57;93.49
54924;BME280;40825;52.270;20.984;2023-02-15T04:00:19;102217.92;;;3.56;93.46
54924;BME280;40825;52.270;20.984;2023-02-15T04:03:31;102217.98;;;3.55;93.59
54924;BME280;40825;52.270;20.984;2023-02-15T04:05:59;102217.88;;;3.57;93.74
54924;BME280;40825;52.270;20.984;2023-02-15T04:08:26;102218.52;;;3.61;93.51
54924;BME280;40825;52.270;20.984;2023-02-15T04:11:11;102217.11;;;3.61;93.48
54924;BME280;40825;52.270;20.984;2023-02-15T04:13:37;102215.56;;;3.60;93.27
54924;BME280;40825;52.270;20.984;2023-02-15T04:16:04;102212.02;;;3.58;93.47
54924;BME280;40825;52.270;20.984;2023-02-15T04:18:41;102211.75;;;3.59;93.45
54924;BME280;40825;52.270;20.984;2023-02-15T04:21:28;102211.66;;;3.61;93.37
54924;BME280;40825;52.270;20.984;2023-02-15T04:24:13;102213.08;;;3.58;93.10
54924;BME280;40825;52.270;20.984;2023-02-15T04:26:58;102210.04;;;3.53;93.07
54924;BME280;40825;52.270;20.984;2023-02-15T04:29:25;102213.58;;;3.50;93.23
54924;BME280;40825;52.270;20.984;2023-02-15T04:31:52;102210.60;;;3.50;93.23
54924;BME280;40825;52.270;20.984;2023-02-15T04:34:18;102212.08;;;3.51;93.08
54924;BME280;40825;52.270;20.984;2023-02-15T04:36:44;102207.85;;;3.46;92.98
54924;BME280;40825;52.270;20.984;2023-02-15T04:39:13;102204.55;;;3.42;93.08
54924;BME280;40825;52.270;20.984;2023-02-15T04:41:39;102210.58;;;3.42;93.19
54924;BME280;40825;52.270;20.984;2023-02-15T04:44:04;102209.60;;;3.43;93.21
54924;BME280;40825;52.270;20.984;2023-02-15T04:46:30;102209.31;;;3.42;93.06
54924;BME280;40825;52.270;20.984;2023-02-15T04:48:56;102212.54;;;3.41;93.00
54924;BME280;40825;52.270;20.984;2023-02-15T04:51:22;102211.33;;;3.39;92.98
54924;BME280;40825;52.270;20.984;2023-02-15T04:53:48;102212.06;;;3.35;92.96
54924;BME280;40825;52.270;20.984;2023-02-15T04:56:13;102217.47;;;3.33;93.07
54924;BME280;40825;52.270;20.984;2023-02-15T04:58:39;102212.48;;;3.28;92.96
54924;BME280;40825;52.270;20.984;2023-02-15T05:01:08;102213.34;;;3.26;92.97
54924;BME280;40825;52.270;20.984;2023-02-15T05:03:34;102215.13;;;3.28;93.16
54924;BME280;40825;52.270;20.984;2023-02-15T05:06:00;102216.77;;;3.30;93.09
54924;BME280;40825;52.270;20.984;2023-02-15T05:08:26;102220.06;;;3.31;93.10
54924;BME280;40825;52.270;20.984;2023-02-15T05:10:51;102220.30;;;3.30;93.06
54924;BME280;40825;52.270;20.984;2023-02-15T05:13:17;102227.73;;;3.29;92.86
54924;BME280;40825;52.270;20.984;2023-02-15T05:15:50;102229.67;;;3.24;92.78
54924;BME280;40825;52.270;20.984;2023-02-15T05:18:17;102232.77;;;3.19;92.91
54924;BME280;40825;52.270;20.984;2023-02-15T05:20:43;102233.03;;;3.18;93.03
54924;BME280;40825;52.270;20.984;2023-02-15T05:23:09;102237.64;;;3.20;93.09
54924;BME280;40825;52.270;20.984;2023-02-15T05:25:35;102238.73;;;3.20;93.08
54924;BME280;40825;52.270;20.984;2023-02-15T05:28:36;102235.27;;;3.19;93.12
54924;BME280;40825;52.270;20.984;2023-02-15T05:31:12;102235.34;;;3.18;92.96
54924;BME280;40825;52.270;20.984;2023-02-15T05:33:39;102234.91;;;3.16;93.07
54924;BME280;40825;52.270;20.984;2023-02-15T05:36:06;102235.27;;;3.16;93.11
54924;BME280;40825;52.270;20.984;2023-02-15T05:38:32;102236.08;;;3.17;93.04
54924;BME280;40825;52.270;20.984;2023-02-15T05:40:58;102238.90;;;3.17;92.98
54924;BME280;40825;52.270;20.984;2023-02-15T05:43:24;102233.63;;;3.14;93.02
54924;BME280;40825;52.270;20.984;2023-02-15T05:45:52;102234.15;;;3.14;93.08
54924;BME280;40825;52.270;20.984;2023-02-15T05:48:20;102232.92;;;3.14;93.14
54924;BME280;40825;52.270;20.984;2023-02-15T05:50:46;102230.83;;;3.11;93.29
54924;BME280;40825;52.270;20.984;2023-02-15T05:53:12;102227.90;;;3.10;93.14
54924;BME280;40825;52.270;20.984;2023-02-15T05:55:39;102232.27;;;3.08;93.17
54924;BME280;40825;52.270;20.984;2023-02-15T05:58:05;102232.17;;;3.06;93.22
54924;BME280;40825;52.270;20.984;2023-02-15T06:00:33;102233.93;;;3.06;93.24
54924;BME280;40825;52.270;20.984;2023-02-15T06:02:59;102235.16;;;3.06;93.21
54924;BME280;40825;52.270;20.984;2023-02-15T06:05:25;102235.63;;;3.07;93.16
54924;BME280;40825;52.270;20.984;2023-02-15T06:07:50;102235.48;;;3.07;93.19
54924;BME280;40825;52.270;20.984;2023-02-15T06:10:16;102237.86;;;3.05;93.10
54924;BME280;40825;52.270;20.984;2023-02-15T06:12:44;102238.25;;;3.07;93.26
54924;BME280;40825;52.270;20.984;2023-02-15T06:15:10;102236.80;;;3.08;93.38
54924;BME280;40825;52.270;20.984;2023-02-15T06:17:35;102236.56;;;3.09;93.57
54924;BME280;40825;52.270;20.984;2023-02-15T06:20:00;102236.03;;;3.00;93.32
54924;BME280;40825;52.270;20.984;2023-02-15T06:22:26;102237.98;;;2.97;93.48
54924;BME280;40825;52.270;20.984;2023-02-15T06:24:51;102241.74;;;2.96;93.69
54924;BME280;40825;52.270;20.984;2023-02-15T06:27:17;102242.35;;;2.92;93.71
54924;BME280;40825;52.270;20.984;2023-02-15T06:29:42;102244.91;;;2.82;93.98
54924;BME280;40825;52.270;20.984;2023-02-15T06:32:08;102246.52;;;2.81;93.65
54924;BME280;40825;52.270;20.984;2023-02-15T06:34:33;102243.20;;;2.81;94.15
54924;BME280;40825;52.270;20.984;2023-02-15T06:36:59;102249.18;;;2.78;93.93
54924;BME280;40825;52.270;20.984;2023-02-15T06:39:24;102247.92;;;2.75;94.11
54924;BME280;40825;52.270;20.984;2023-02-15T06:41:50;102245.91;;;2.74;94.21
54924;BME280;40825;52.270;20.984;2023-02-15T06:44:15;102252.60;;;2.74;94.03
54924;BME280;40825;52.270;20.984;2023-02-15T06:46:41;102250.96;;;2.74;93.87
54924;BME280;40825;52.270;20.984;2023-02-15T06:49:07;102249.05;;;2.74;94.10
54924;BME280;40825;52.270;20.984;2023-02-15T06:51:32;102247.04;;;2.76;94.11
54924;BME280;40825;52.270;20.984;2023-02-15T06:53:59;102245.65;;;2.79;93.80
54924;BME280;40825;52.270;20.984;2023-02-15T06:56:25;102245.30;;;2.81;93.78
54924;BME280;40825;52.270;20.984;2023-02-15T06:58:51;102243.09;;;2.83;93.77
54924;BME280;40825;52.270;20.984;2023-02-15T07:01:17;102241.61;;;2.81;93.75
54924;BME280;40825;52.270;20.984;2023-02-15T07:03:43;102243.59;;;2.78;93.77
54924;BME280;40825;52.270;20.984;2023-02-15T07:06:09;102241.27;;;2.75;93.84
54924;BME280;40825;52.270;20.984;2023-02-15T07:08:36;102241.08;;;2.75;93.90
54924;BME280;40825;52.270;20.984;2023-02-15T07:11:04;102242.04;;;2.77;93.73
54924;BME280;40825;52.270;20.984;2023-02-15T07:13:48;102243.64;;;2.77;93.65
54924;BME280;40825;52.270;20.984;2023-02-15T07:16:14;102238.98;;;2.75;93.83
54924;BME280;40825;52.270;20.984;2023-02-15T07:18:40;102237.38;;;2.75;93.84
54924;BME280;40825;52.270;20.984;2023-02-15T07:21:06;102235.84;;;2.75;93.93
54924;BME280;40825;52.270;20.984;2023-02-15T07:23:38;102238.38;;;2.76;94.02
54924;BME280;40825;52.270;20.984;2023-02-15T07:26:05;102238.20;;;2.79;94.23
54924;BME280;40825;52.270;20.984;2023-02-15T07:28:32;102233.74;;;2.83;94.33
54924;BME280;40825;52.270;20.984;2023-02-15T07:31:01;102233.25;;;2.80;94.50
54924;BME280;40825;52.270;20.984;2023-02-15T07:33:26;102228.95;;;2.72;94.69
54924;BME280;40825;52.270;20.984;2023-02-15T07:35:55;102227.98;;;2.65;94.69
54924;BME280;40825;52.270;20.984;2023-02-15T07:38:22;102229.69;;;2.60;95.18
54924;BME280;40825;52.270;20.984;2023-02-15T07:40:48;102228.35;;;2.59;94.94
54924;BME280;40825;52.270;20.984;2023-02-15T07:43:13;102228.98;;;2.60;95.22
54924;BME280;40825;52.270;20.984;2023-02-15T07:45:39;102227.42;;;2.57;95.65
54924;BME280;40825;52.270;20.984;2023-02-15T07:48:05;102226.25;;;2.53;95.73
54924;BME280;40825;52.270;20.984;2023-02-15T07:50:32;102226.48;;;2.52;95.38
54924;BME280;40825;52.270;20.984;2023-02-15T07:52:58;102226.67;;;2.55;95.20
54924;BME280;40825;52.270;20.984;2023-02-15T07:55:23;102224.56;;;2.60;95.00
54924;BME280;40825;52.270;20.984;2023-02-15T07:57:50;102221.49;;;2.65;94.97
54924;BME280;40825;52.270;20.984;2023-02-15T08:00:18;102220.80;;;2.71;94.71
54924;BME280;40825;52.270;20.984;2023-02-15T08:02:49;102218.02;;;2.76;94.65
54924;BME280;40825;52.270;20.984;2023-02-15T08:05:35;102216.21;;;2.82;94.63
54924;BME280;40825;52.270;20.984;2023-02-15T08:08:00;102216.61;;;2.90;94.55
54924;BME280;40825;52.270;20.984;2023-02-15T08:10:26;102214.48;;;2.93;94.46
54924;BME280;40825;52.270;20.984;2023-02-15T08:13:11;102212.27;;;2.92;94.50
54924;BME280;40825;52.270;20.984;2023-02-15T08:15:37;102214.42;;;2.94;94.64
54924;BME280;40825;52.270;20.984;2023-02-15T08:18:02;102207.25;;;2.99;94.71
54924;BME280;40825;52.270;20.984;2023-02-15T08:20:28;102210.70;;;2.95;94.61
54924;BME280;40825;52.270;20.984;2023-02-15T08:22:53;102208.92;;;2.86;94.55
54924;BME280;40825;52.270;20.984;2023-02-15T08:25:19;102206.38;;;2.76;94.80
54924;BME280;40825;52.270;20.984;2023-02-15T08:27:44;102204.45;;;2.73;94.77
54924;BME280;40825;52.270;20.984;2023-02-15T08:30:10;102202.89;;;2.76;94.89
54924;BME280;40825;52.270;20.984;2023-02-15T08:32:36;102203.11;;;2.78;94.87
54924;BME280;40825;52.270;20.984;2023-02-15T08:35:02;102204.02;;;2.80;94.71
54924;BME280;40825;52.270;20.984;2023-02-15T08:37:27;102204.52;;;2.87;94.57
54924;BME280;40825;52.270;20.984;2023-02-15T08:39:53;102203.48;;;2.89;94.43
54924;BME280;40825;52.270;20.984;2023-02-15T08:42:18;102204.70;;;2.89;94.50
54924;BME280;40825;52.270;20.984;2023-02-15T08:44:46;102201.92;;;2.92;94.53
54924;BME280;40825;52.270;20.984;2023-02-15T08:47:11;102198.29;;;2.88;94.53
54924;BME280;40825;52.270;20.984;2023-02-15T08:49:37;102193.81;;;2.83;94.50
54924;BME280;40825;52.270;20.984;2023-02-15T08:52:02;102191.91;;;2.86;94.76
54924;BME280;40825;52.270;20.984;2023-02-15T08:54:28;102192.41;;;2.89;94.73
54924;BME280;40825;52.270;20.984;2023-02-15T08:56:53;102193.28;;;2.89;94.52
54924;BME280;40825;52.270;20.984;2023-02-15T08:59:21;102186.29;;;2.83;94.54
54924;BME280;40825;52.270;20.984;2023-02-15T09:01:49;102183.16;;;2.80;94.78
54924;BME280;40825;52.270;20.984;2023-02-15T09:04:15;102181.71;;;2.74;95.30
54924;BME280;40825;52.270;20.984;2023-02-15T09:06:42;102180.65;;;2.69;95.06
54924;BME280;40825;52.270;20.984;2023-02-15T09:09:10;102177.30;;;2.69;95.01
54924;BME280;40825;52.270;20.984;2023-02-15T09:11:37;102177.33;;;2.68;95.12
54924;BME280;40825;52.270;20.984;2023-02-15T09:14:06;102176.63;;;2.65;95.26
54924;BME280;40825;52.270;20.984;2023-02-15T09:16:35;102177.34;;;2.62;95.00
54924;BME280;40825;52.270;20.984;2023-02-15T09:19:02;102175.27;;;2.59;95.01
54924;BME280;40825;52.270;20.984;2023-02-15T09:21:30;102171.94;;;2.53;95.08
54924;BME280;40825;52.270;20.984;2023-02-15T09:23:58;102169.48;;;2.47;95.20
54924;BME280;40825;52.270;20.984;2023-02-15T09:26:26;102173.02;;;2.50;95.01
54924;BME280;40825;52.270;20.984;2023-02-15T09:28:55;102171.34;;;2.54;94.99
54924;BME280;40825;52.270;20.984;2023-02-15T09:31:24;102169.96;;;2.56;94.81
54924;BME280;40825;52.270;20.984;2023-02-15T09:33:50;102173.27;;;2.60;94.83
54924;BME280;40825;52.270;20.984;2023-02-15T09:36:22;102170.30;;;2.63;94.68
54924;BME280;40825;52.270;20.984;2023-02-15T09:38:55;102167.71;;;2.64;94.48
54924;BME280;40825;52.270;20.984;2023-02-15T09:49:38;102169.21;;;2.60;94.28
54924;BME280;40825;52.270;20.984;2023-02-15T09:55:14;102165.30;;;2.61;93.80
54924;BME280;40825;52.270;20.984;2023-02-15T09:58:03;102166.53;;;2.61;94.09
54924;BME280;40825;52.270;20.984;2023-02-15T10:05:40;102163.95;;;2.71;93.74
54924;BME280;40825;52.270;20.984;2023-02-15T10:14:06;102156.02;;;2.69;93.34
54924;BME280;40825;52.270;20.984;2023-02-15T10:16:46;102151.52;;;2.62;93.35
54924;BME280;40825;52.270;20.984;2023-02-15T10:19:20;102148.84;;;2.60;93.60
54924;BME280;40825;52.270;20.984;2023-02-15T10:27:20;102141.77;;;2.46;94.05
54924;BME280;40825;52.270;20.984;2023-02-15T10:30:04;102137.55;;;2.43;94.26
54924;BME280;40825;52.270;20.984;2023-02-15T10:32:59;102136.66;;;2.46;94.26
54924;BME280;40825;52.270;20.984;2023-02-15T10:38:44;102129.50;;;2.45;94.56
54924;BME280;40825;52.270;20.984;2023-02-15T10:44:00;102127.96;;;2.47;94.59
54924;BME280;40825;52.270;20.984;2023-02-15T10:47:03;102125.52;;;2.50;94.74
54924;BME280;40825;52.270;20.984;2023-02-15T10:49:26;102126.11;;;2.58;94.96
54924;BME280;40825;52.270;20.984;2023-02-15T10:54:53;102119.98;;;2.63;94.51
54924;BME280;40825;52.270;20.984;2023-02-15T10:57:30;102116.02;;;2.65;94.42
54924;BME280;40825;52.270;20.984;2023-02-15T11:07:43;102099.45;;;2.57;94.83
54924;BME280;40825;52.270;20.984;2023-02-15T11:13:14;102094.94;;;2.61;94.67
54924;BME280;40825;52.270;20.984;2023-02-15T11:15:52;102097.86;;;2.63;94.55
54924;BME280;40825;52.270;20.984;2023-02-15T11:18:30;102098.71;;;2.60;94.41
54924;BME280;40825;52.270;20.984;2023-02-15T11:21:08;102100.38;;;2.56;94.43
54924;BME280;40825;52.270;20.984;2023-02-15T11:23:42;102096.96;;;2.55;94.51
54924;BME280;40825;52.270;20.984;2023-02-15T11:26:17;102097.61;;;2.50;94.52
54924;BME280;40825;52.270;20.984;2023-02-15T11:28:51;102091.92;;;2.45;94.55
54924;BME280;40825;52.270;20.984;2023-02-15T11:31:21;102089.56;;;2.43;94.61
54924;BME280;40825;52.270;20.984;2023-02-15T11:33:56;102087.09;;;2.43;94.62
54924;BME280;40825;52.270;20.984;2023-02-15T11:36:27;102089.65;;;2.45;94.56
54924;BME280;40825;52.270;20.984;2023-02-15T11:39:02;102088.61;;;2.44;94.64
54924;BME280;40825;52.270;20.984;2023-02-15T11:41:32;102090.94;;;2.41;94.61
54924;BME280;40825;52.270;20.984;2023-02-15T11:44:12;102090.56;;;2.41;94.79
54924;BME280;40825;52.270;20.984;2023-02-15T11:46:40;102088.14;;;2.43;95.06
54924;BME280;40825;52.270;20.984;2023-02-15T11:49:33;102093.70;;;2.47;94.94
54924;BME280;40825;52.270;20.984;2023-02-15T11:52:07;102090.73;;;2.50;94.85
54924;BME280;40825;52.270;20.984;2023-02-15T11:54:35;102087.65;;;2.52;94.81
54924;BME280;40825;52.270;20.984;2023-02-15T11:59:39;102084.88;;;2.48;94.75
54924;BME280;40825;52.270;20.984;2023-02-15T12:02:17;102077.98;;;2.49;94.92
54924;BME280;40825;52.270;20.984;2023-02-15T12:04:48;102071.39;;;2.47;95.01
54924;BME280;40825;52.270;20.984;2023-02-15T12:07:32;102068.80;;;2.47;95.00
54924;BME280;40825;52.270;20.984;2023-02-15T12:10:03;102067.27;;;2.48;95.23
54924;BME280;40825;52.270;20.984;2023-02-15T12:12:37;102067.50;;;2.51;95.26
54924;BME280;40825;52.270;20.984;2023-02-15T12:15:09;102060.27;;;2.54;95.33
54924;BME280;40825;52.270;20.984;2023-02-15T12:17:48;102058.25;;;2.55;95.52
54924;BME280;40825;52.270;20.984;2023-02-15T12:22:46;102050.58;;;2.57;95.71
54924;BME280;40825;52.270;20.984;2023-02-15T12:25:34;102049.21;;;2.59;95.68
54924;BME280;40825;52.270;20.984;2023-02-15T12:28:02;102045.36;;;2.59;95.65
54924;BME280;40825;52.270;20.984;2023-02-15T12:30:30;102041.61;;;2.60;95.80
54924;BME280;40825;52.270;20.984;2023-02-15T12:33:05;102039.22;;;2.62;95.82
54924;BME280;40825;52.270;20.984;2023-02-15T12:35:35;102038.80;;;2.63;96.03
54924;BME280;40825;52.270;20.984;2023-02-15T12:40:36;102036.56;;;2.70;95.59
54924;BME280;40825;52.270;20.984;2023-02-15T12:43:02;102033.15;;;2.71;95.82
54924;BME280;40825;52.270;20.984;2023-02-15T12:45:37;102028.20;;;2.69;96.02
54924;BME280;40825;52.270;20.984;2023-02-15T12:50:40;102018.67;;;2.70;95.81
54924;BME280;40825;52.270;20.984;2023-02-15T12:53:16;102015.52;;;2.69;96.12
54924;BME280;40825;52.270;20.984;2023-02-15T12:56:00;102014.42;;;2.67;96.21
54924;BME280;40825;52.270;20.984;2023-02-15T12:58:26;102011.74;;;2.65;96.39
54924;BME280;40825;52.270;20.984;2023-02-15T13:03:35;102006.67;;;2.70;96.17
54924;BME280;40825;52.270;20.984;2023-02-15T13:06:01;102007.99;;;2.77;96.12
54924;BME280;40825;52.270;20.984;2023-02-15T13:08:54;102007.17;;;2.82;96.11
54924;BME280;40825;52.270;20.984;2023-02-15T13:11:25;102003.14;;;2.82;96.09
54924;BME280;40825;52.270;20.984;2023-02-15T13:13:56;101998.67;;;2.77;96.05
54924;BME280;40825;52.270;20.984;2023-02-15T13:16:35;101996.00;;;2.72;96.30
54924;BME280;40825;52.270;20.984;2023-02-15T13:19:36;101993.20;;;2.75;96.32
54924;BME280;40825;52.270;20.984;2023-02-15T13:22:06;101989.22;;;2.77;96.32
54924;BME280;40825;52.270;20.984;2023-02-15T13:24:38;101988.78;;;2.75;96.59
54924;BME280;40825;52.270;20.984;2023-02-15T13:27:05;101981.56;;;2.75;96.46
54924;BME280;40825;52.270;20.984;2023-02-15T13:29:35;101975.97;;;2.78;96.31
54924;BME280;40825;52.270;20.984;2023-02-15T13:32:31;101972.44;;;2.78;96.26
54924;BME280;40825;52.270;20.984;2023-02-15T13:34:59;101968.64;;;2.80;96.55
54924;BME280;40825;52.270;20.984;2023-02-15T13:40:15;101971.83;;;2.93;95.88
54924;BME280;40825;52.270;20.984;2023-02-15T13:42:59;101972.14;;;2.90;95.62
54924;BME280;40825;52.270;20.984;2023-02-15T13:45:47;101971.10;;;2.90;95.60
54924;BME280;40825;52.270;20.984;2023-02-15T13:51:27;101969.38;;;2.93;95.62
54924;BME280;40825;52.270;20.984;2023-02-15T14:05:28;101962.35;;;2.87;95.44
54924;BME280;40825;52.270;20.984;2023-02-15T14:08:28;101957.00;;;2.83;95.78
54924;BME280;40825;52.270;20.984;2023-02-15T14:16:52;101956.69;;;2.66;95.90
54924;BME280;40825;52.270;20.984;2023-02-15T14:19:31;101949.45;;;2.60;96.21
54924;BME280;40825;52.270;20.984;2023-02-15T14:22:12;101948.01;;;2.64;96.08
54924;BME280;40825;52.270;20.984;2023-02-15T14:24:44;101946.69;;;2.66;96.05
54924;BME280;40825;52.270;20.984;2023-02-15T14:27:42;101947.30;;;2.67;96.09
54924;BME280;40825;52.270;20.984;2023-02-15T14:30:17;101947.61;;;2.65;95.93
54924;BME280;40825;52.270;20.984;2023-02-15T14:32:56;101946.04;;;2.67;95.87
54924;BME280;40825;52.270;20.984;2023-02-15T14:35:27;101946.27;;;2.69;95.83
54924;BME280;40825;52.270;20.984;2023-02-15T14:41:15;101944.76;;;2.65;95.36
54924;BME280;40825;52.270;20.984;2023-02-15T14:49:35;101944.50;;;2.61;95.49
54924;BME280;40825;52.270;20.984;2023-02-15T14:52:04;101945.30;;;2.60;95.77
54924;BME280;40825;52.270;20.984;2023-02-15T14:59:35;101931.72;;;2.55;95.51
54924;BME280;40825;52.270;20.984;2023-02-15T15:04:43;101921.47;;;2.53;95.75
54924;BME280;40825;52.270;20.984;2023-02-15T15:07:22;101922.48;;;2.54;96.05
54924;BME280;40825;52.270;20.984;2023-02-15T15:10:03;101926.44;;;2.52;96.06